sensor_id;sensor_type;location;lat;lon;timestamp;temperature;humidity
16198;DHT22;8206;51.440;6.914;2022-10-15T00:01:09;13.80;99.90
16198;DHT22;8206;51.440;6.914;2022-10-15T00:03:37;13.80;99.90
16198;DHT22;8206;51.440;6.914;2022-10-15T00:06:05;13.70;99.90
16198;DHT22;8206;51.440;6.914;2022-10-15T00:08:32;13.70;99.90
16198;DHT22;8206;51.440;6.914;2022-10-15T00:11:05;13.60;99.90
16198;DHT22;8206;51.440;6.914;2022-10-15T00:13:32;13.50;99.90
16198;DHT22;8206;51.440;6.914;2022-10-15T00:15:59;13.50;99.90
16198;DHT22;8206;51.440;6.914;2022-10-15T00:18:26;13.40;99.90
16198;DHT22;8206;51.440;6.914;2022-10-15T00:20:53;13.40;99.90
16198;DHT22;8206;51.440;6.914;2022-10-15T00:23:20;13.30;99.90
16198;DHT22;8206;51.440;6.914;2022-10-15T00:25:47;13.30;99.90
16198;DHT22;8206;51.440;6.914;2022-10-15T00:28:15;13.30;99.90
16198;DHT22;8206;51.440;6.914;2022-10-15T00:30:42;13.20;99.90
16198;DHT22;8206;51.440;6.914;2022-10-15T00:33:08;13.30;99.90
16198;DHT22;8206;51.440;6.914;2022-10-15T00:35:35;13.20;99.90
16198;DHT22;8206;51.440;6.914;2022-10-15T00:38:02;13.20;99.90
16198;DHT22;8206;51.440;6.914;2022-10-15T00:40:28;13.20;99.90
16198;DHT22;8206;51.440;6.914;2022-10-15T00:42:55;13.10;99.90
16198;DHT22;8206;51.440;6.914;2022-10-15T00:45:23;13.10;99.90
16198;DHT22;8206;51.440;6.914;2022-10-15T00:47:51;12.90;99.90
16198;DHT22;8206;51.440;6.914;2022-10-15T00:50:20;13.00;99.90
16198;DHT22;8206;51.440;6.914;2022-10-15T00:52:56;12.90;99.90
16198;DHT22;8206;51.440;6.914;2022-10-15T00:55:28;12.90;99.90
16198;DHT22;8206;51.440;6.914;2022-10-15T00:57:58;12.90;99.90
16198;DHT22;8206;51.440;6.914;2022-10-15T01:00:27;12.90;99.90
16198;DHT22;8206;51.440;6.914;2022-10-15T01:02:54;12.90;99.90
16198;DHT22;8206;51.440;6.914;2022-10-15T01:05:21;12.90;99.90
16198;DHT22;8206;51.440;6.914;2022-10-15T01:07:48;12.90;99.90
16198;DHT22;8206;51.440;6.914;2022-10-15T01:10:16;12.90;99.90
16198;DHT22;8206;51.440;6.914;2022-10-15T01:13:03;12.90;99.90
16198;DHT22;8206;51.440;6.914;2022-10-15T01:15:40;12.90;99.90
16198;DHT22;8206;51.440;6.914;2022-10-15T01:18:14;12.80;99.90
16198;DHT22;8206;51.440;6.914;2022-10-15T01:20:53;12.80;99.90
16198;DHT22;8206;51.440;6.914;2022-10-15T01:23:48;12.80;99.90
16198;DHT22;8206;51.440;6.914;2022-10-15T01:26:58;12.90;99.90
16198;DHT22;8206;51.440;6.914;2022-10-15T01:29:45;12.90;99.90
16198;DHT22;8206;51.440;6.914;2022-10-15T01:32:20;13.00;99.90
16198;DHT22;8206;51.440;6.914;2022-10-15T01:34:53;13.00;99.90
16198;DHT22;8206;51.440;6.914;2022-10-15T01:37:26;13.00;99.90
16198;DHT22;8206;51.440;6.914;2022-10-15T01:39:57;13.10;99.90
16198;DHT22;8206;51.440;6.914;2022-10-15T01:42:27;13.10;99.90
16198;DHT22;8206;51.440;6.914;2022-10-15T01:44:58;13.10;99.90
16198;DHT22;8206;51.440;6.914;2022-10-15T01:47:31;13.20;99.90
16198;DHT22;8206;51.440;6.914;2022-10-15T01:50:01;13.20;99.90
16198;DHT22;8206;51.440;6.914;2022-10-15T01:52:31;13.20;99.90
16198;DHT22;8206;51.440;6.914;2022-10-15T01:54:59;13.20;99.90
16198;DHT22;8206;51.440;6.914;2022-10-15T01:57:29;13.20;99.90
16198;DHT22;8206;51.440;6.914;2022-10-15T01:59:58;13.30;99.90
16198;DHT22;8206;51.440;6.914;2022-10-15T02:02:27;13.30;99.90
16198;DHT22;8206;51.440;6.914;2022-10-15T02:04:54;13.30;99.90
16198;DHT22;8206;51.440;6.914;2022-10-15T02:07:28;13.30;99.90
16198;DHT22;8206;51.440;6.914;2022-10-15T02:10:05;13.30;99.90
16198;DHT22;8206;51.440;6.914;2022-10-15T02:12:40;13.30;99.90
16198;DHT22;8206;51.440;6.914;2022-10-15T02:15:12;13.30;99.90
16198;DHT22;8206;51.440;6.914;2022-10-15T02:17:45;13.30;99.90
16198;DHT22;8206;51.440;6.914;2022-10-15T02:20:16;13.40;99.90
16198;DHT22;8206;51.440;6.914;2022-10-15T02:22:48;13.40;99.90
16198;DHT22;8206;51.440;6.914;2022-10-15T02:25:18;13.40;99.90
16198;DHT22;8206;51.440;6.914;2022-10-15T02:27:47;13.40;99.90
16198;DHT22;8206;51.440;6.914;2022-10-15T02:30:14;13.50;99.90
16198;DHT22;8206;51.440;6.914;2022-10-15T02:32:46;13.40;99.90
16198;DHT22;8206;51.440;6.914;2022-10-15T02:35:14;13.40;99.90
16198;DHT22;8206;51.440;6.914;2022-10-15T02:37:44;13.50;99.90
16198;DHT22;8206;51.440;6.914;2022-10-15T02:40:13;13.50;99.90
16198;DHT22;8206;51.440;6.914;2022-10-15T02:42:39;13.50;99.90
16198;DHT22;8206;51.440;6.914;2022-10-15T02:45:07;13.50;99.90
16198;DHT22;8206;51.440;6.914;2022-10-15T02:47:34;13.40;99.90
16198;DHT22;8206;51.440;6.914;2022-10-15T02:50:03;13.50;99.90
16198;DHT22;8206;51.440;6.914;2022-10-15T02:52:29;13.40;99.90
16198;DHT22;8206;51.440;6.914;2022-10-15T02:54:56;13.40;99.90
16198;DHT22;8206;51.440;6.914;2022-10-15T02:57:23;13.30;99.90
16198;DHT22;8206;51.440;6.914;2022-10-15T02:59:50;13.30;99.90
16198;DHT22;8206;51.440;6.914;2022-10-15T03:02:16;13.20;99.90
16198;DHT22;8206;51.440;6.914;2022-10-15T03:04:43;13.10;99.90
16198;DHT22;8206;51.440;6.914;2022-10-15T03:07:11;13.10;99.90
16198;DHT22;8206;51.440;6.914;2022-10-15T03:09:38;13.10;99.90
16198;DHT22;8206;51.440;6.914;2022-10-15T03:12:05;13.10;99.90
16198;DHT22;8206;51.440;6.914;2022-10-15T03:14:32;13.10;99.90
16198;DHT22;8206;51.440;6.914;2022-10-15T03:16:59;13.10;99.90
16198;DHT22;8206;51.440;6.914;2022-10-15T03:19:26;13.10;99.90
16198;DHT22;8206;51.440;6.914;2022-10-15T03:21:53;13.10;99.90
16198;DHT22;8206;51.440;6.914;2022-10-15T03:24:21;13.10;99.90
16198;DHT22;8206;51.440;6.914;2022-10-15T03:26:47;13.20;99.90
16198;DHT22;8206;51.440;6.914;2022-10-15T03:29:14;13.10;99.90
16198;DHT22;8206;51.440;6.914;2022-10-15T03:31:41;13.10;99.90
16198;DHT22;8206;51.440;6.914;2022-10-15T03:34:08;13.20;99.90
16198;DHT22;8206;51.440;6.914;2022-10-15T03:36:35;13.10;99.90
16198;DHT22;8206;51.440;6.914;2022-10-15T03:39:01;13.20;99.90
16198;DHT22;8206;51.440;6.914;2022-10-15T03:41:29;13.20;99.90
16198;DHT22;8206;51.440;6.914;2022-10-15T03:43:59;13.20;99.90
16198;DHT22;8206;51.440;6.914;2022-10-15T03:46:26;13.20;99.90
16198;DHT22;8206;51.440;6.914;2022-10-15T03:48:53;13.10;99.90
16198;DHT22;8206;51.440;6.914;2022-10-15T03:51:20;13.10;99.90
16198;DHT22;8206;51.440;6.914;2022-10-15T03:53:47;13.10;99.90
16198;DHT22;8206;51.440;6.914;2022-10-15T03:56:14;13.10;99.90
16198;DHT22;8206;51.440;6.914;2022-10-15T03:58:42;13.10;99.90
16198;DHT22;8206;51.440;6.914;2022-10-15T04:01:09;13.10;99.90
16198;DHT22;8206;51.440;6.914;2022-10-15T04:03:36;13.00;99.90
16198;DHT22;8206;51.440;6.914;2022-10-15T04:06:04;13.00;99.90
16198;DHT22;8206;51.440;6.914;2022-10-15T04:08:30;13.10;99.90
16198;DHT22;8206;51.440;6.914;2022-10-15T04:10:57;13.00;99.90
16198;DHT22;8206;51.440;6.914;2022-10-15T04:13:25;13.10;99.90
16198;DHT22;8206;51.440;6.914;2022-10-15T04:15:53;13.10;99.90
16198;DHT22;8206;51.440;6.914;2022-10-15T04:18:20;13.10;99.90
16198;DHT22;8206;51.440;6.914;2022-10-15T04:20:47;13.10;99.90
16198;DHT22;8206;51.440;6.914;2022-10-15T04:23:16;13.20;99.90
16198;DHT22;8206;51.440;6.914;2022-10-15T04:25:43;13.10;99.90
16198;DHT22;8206;51.440;6.914;2022-10-15T04:28:10;13.10;99.90
16198;DHT22;8206;51.440;6.914;2022-10-15T04:30:37;13.10;99.90
16198;DHT22;8206;51.440;6.914;2022-10-15T04:33:05;13.00;99.90
16198;DHT22;8206;51.440;6.914;2022-10-15T04:35:32;13.00;99.90
16198;DHT22;8206;51.440;6.914;2022-10-15T04:37:59;13.00;99.90
16198;DHT22;8206;51.440;6.914;2022-10-15T04:40:26;13.00;99.90
16198;DHT22;8206;51.440;6.914;2022-10-15T04:42:53;13.00;99.90
16198;DHT22;8206;51.440;6.914;2022-10-15T04:45:20;13.00;99.90
16198;DHT22;8206;51.440;6.914;2022-10-15T04:47:47;13.10;99.90
16198;DHT22;8206;51.440;6.914;2022-10-15T04:50:15;13.00;99.90
16198;DHT22;8206;51.440;6.914;2022-10-15T04:52:41;13.10;99.90
16198;DHT22;8206;51.440;6.914;2022-10-15T04:55:08;13.10;99.90
16198;DHT22;8206;51.440;6.914;2022-10-15T04:57:35;13.10;99.90
16198;DHT22;8206;51.440;6.914;2022-10-15T05:00:02;13.10;99.90
16198;DHT22;8206;51.440;6.914;2022-10-15T05:02:29;13.20;99.90
16198;DHT22;8206;51.440;6.914;2022-10-15T05:04:57;13.20;99.90
16198;DHT22;8206;51.440;6.914;2022-10-15T05:07:25;13.10;99.90
16198;DHT22;8206;51.440;6.914;2022-10-15T05:09:52;13.20;99.90
16198;DHT22;8206;51.440;6.914;2022-10-15T05:12:18;13.20;99.90
16198;DHT22;8206;51.440;6.914;2022-10-15T05:14:45;13.20;99.90
16198;DHT22;8206;51.440;6.914;2022-10-15T05:17:12;13.20;99.90
16198;DHT22;8206;51.440;6.914;2022-10-15T05:19:39;13.10;99.90
16198;DHT22;8206;51.440;6.914;2022-10-15T05:22:06;13.00;99.90
16198;DHT22;8206;51.440;6.914;2022-10-15T05:24:34;12.90;99.90
16198;DHT22;8206;51.440;6.914;2022-10-15T05:27:00;12.80;99.90
16198;DHT22;8206;51.440;6.914;2022-10-15T05:29:27;12.80;99.90
16198;DHT22;8206;51.440;6.914;2022-10-15T05:31:54;12.70;99.90
16198;DHT22;8206;51.440;6.914;2022-10-15T05:34:21;12.60;99.90
16198;DHT22;8206;51.440;6.914;2022-10-15T05:36:47;12.50;99.90
16198;DHT22;8206;51.440;6.914;2022-10-15T05:39:14;12.40;99.90
16198;DHT22;8206;51.440;6.914;2022-10-15T05:41:42;12.40;99.90
16198;DHT22;8206;51.440;6.914;2022-10-15T05:44:09;12.40;99.90
16198;DHT22;8206;51.440;6.914;2022-10-15T05:46:36;12.40;99.90
16198;DHT22;8206;51.440;6.914;2022-10-15T05:49:03;12.30;99.90
16198;DHT22;8206;51.440;6.914;2022-10-15T05:51:29;12.30;99.90
16198;DHT22;8206;51.440;6.914;2022-10-15T05:53:57;12.30;99.90
16198;DHT22;8206;51.440;6.914;2022-10-15T05:56:25;12.30;99.90
16198;DHT22;8206;51.440;6.914;2022-10-15T05:58:54;12.30;99.90
16198;DHT22;8206;51.440;6.914;2022-10-15T06:01:20;12.50;99.90
16198;DHT22;8206;51.440;6.914;2022-10-15T06:03:47;12.50;99.90
16198;DHT22;8206;51.440;6.914;2022-10-15T06:06:16;12.60;99.90
16198;DHT22;8206;51.440;6.914;2022-10-15T06:08:43;12.60;99.90
16198;DHT22;8206;51.440;6.914;2022-10-15T06:11:10;12.60;99.90
16198;DHT22;8206;51.440;6.914;2022-10-15T06:13:37;12.70;99.90
16198;DHT22;8206;51.440;6.914;2022-10-15T06:16:06;12.70;99.90
16198;DHT22;8206;51.440;6.914;2022-10-15T06:18:34;12.80;99.90
16198;DHT22;8206;51.440;6.914;2022-10-15T06:21:01;12.80;99.90
16198;DHT22;8206;51.440;6.914;2022-10-15T06:23:27;12.90;99.90
16198;DHT22;8206;51.440;6.914;2022-10-15T06:25:54;13.00;99.90
16198;DHT22;8206;51.440;6.914;2022-10-15T06:28:22;13.10;99.90
16198;DHT22;8206;51.440;6.914;2022-10-15T06:30:48;13.20;99.90
16198;DHT22;8206;51.440;6.914;2022-10-15T06:33:16;13.20;99.90
16198;DHT22;8206;51.440;6.914;2022-10-15T06:35:43;13.20;99.90
16198;DHT22;8206;51.440;6.914;2022-10-15T06:38:10;13.20;99.90
16198;DHT22;8206;51.440;6.914;2022-10-15T06:40:37;13.30;99.90
16198;DHT22;8206;51.440;6.914;2022-10-15T06:43:04;13.30;99.90
16198;DHT22;8206;51.440;6.914;2022-10-15T06:45:32;13.30;99.90
16198;DHT22;8206;51.440;6.914;2022-10-15T06:48:01;13.30;99.90
16198;DHT22;8206;51.440;6.914;2022-10-15T06:50:29;13.40;99.90
16198;DHT22;8206;51.440;6.914;2022-10-15T06:52:56;13.50;99.90
16198;DHT22;8206;51.440;6.914;2022-10-15T06:55:22;13.50;99.90
16198;DHT22;8206;51.440;6.914;2022-10-15T06:57:49;13.60;99.90
16198;DHT22;8206;51.440;6.914;2022-10-15T07:00:17;13.70;99.90
16198;DHT22;8206;51.440;6.914;2022-10-15T07:02:43;13.80;99.90
16198;DHT22;8206;51.440;6.914;2022-10-15T07:05:10;13.90;99.90
16198;DHT22;8206;51.440;6.914;2022-10-15T07:07:38;14.00;99.90
16198;DHT22;8206;51.440;6.914;2022-10-15T07:10:06;14.10;99.90
16198;DHT22;8206;51.440;6.914;2022-10-15T07:12:33;14.00;99.90
16198;DHT22;8206;51.440;6.914;2022-10-15T07:15:00;14.00;99.90
16198;DHT22;8206;51.440;6.914;2022-10-15T07:17:27;13.90;99.90
16198;DHT22;8206;51.440;6.914;2022-10-15T07:19:54;13.80;99.90
16198;DHT22;8206;51.440;6.914;2022-10-15T07:22:21;13.80;99.90
16198;DHT22;8206;51.440;6.914;2022-10-15T07:24:49;13.90;99.90
16198;DHT22;8206;51.440;6.914;2022-10-15T07:27:15;13.90;99.90
16198;DHT22;8206;51.440;6.914;2022-10-15T07:29:42;14.10;99.90
16198;DHT22;8206;51.440;6.914;2022-10-15T07:32:09;14.20;99.90
16198;DHT22;8206;51.440;6.914;2022-10-15T07:34:36;14.30;99.90
16198;DHT22;8206;51.440;6.914;2022-10-15T07:37:03;14.30;99.90
16198;DHT22;8206;51.440;6.914;2022-10-15T07:39:29;14.30;99.90
16198;DHT22;8206;51.440;6.914;2022-10-15T07:41:57;14.30;99.90
16198;DHT22;8206;51.440;6.914;2022-10-15T07:44:24;14.30;99.90
16198;DHT22;8206;51.440;6.914;2022-10-15T07:46:51;14.20;99.90
16198;DHT22;8206;51.440;6.914;2022-10-15T07:49:17;14.20;99.90
16198;DHT22;8206;51.440;6.914;2022-10-15T07:51:44;14.30;99.90
16198;DHT22;8206;51.440;6.914;2022-10-15T07:54:11;14.30;99.90
16198;DHT22;8206;51.440;6.914;2022-10-15T07:56:38;14.40;99.90
16198;DHT22;8206;51.440;6.914;2022-10-15T07:59:07;14.40;99.90
16198;DHT22;8206;51.440;6.914;2022-10-15T08:01:33;14.40;99.90
16198;DHT22;8206;51.440;6.914;2022-10-15T08:04:00;14.40;99.90
16198;DHT22;8206;51.440;6.914;2022-10-15T08:06:27;14.50;99.90
16198;DHT22;8206;51.440;6.914;2022-10-15T08:08:53;14.40;99.90
16198;DHT22;8206;51.440;6.914;2022-10-15T08:11:20;14.50;99.90
16198;DHT22;8206;51.440;6.914;2022-10-15T08:13:47;14.50;99.90
16198;DHT22;8206;51.440;6.914;2022-10-15T08:16:15;14.60;99.90
16198;DHT22;8206;51.440;6.914;2022-10-15T08:18:44;14.60;99.90
16198;DHT22;8206;51.440;6.914;2022-10-15T08:21:11;14.70;99.90
16198;DHT22;8206;51.440;6.914;2022-10-15T08:23:37;14.80;99.90
16198;DHT22;8206;51.440;6.914;2022-10-15T08:26:04;14.90;99.90
16198;DHT22;8206;51.440;6.914;2022-10-15T08:28:32;14.90;99.90
16198;DHT22;8206;51.440;6.914;2022-10-15T08:31:00;14.90;99.90
16198;DHT22;8206;51.440;6.914;2022-10-15T08:33:28;14.90;99.90
16198;DHT22;8206;51.440;6.914;2022-10-15T08:35:55;14.80;99.90
16198;DHT22;8206;51.440;6.914;2022-10-15T08:38:22;14.90;99.90
16198;DHT22;8206;51.440;6.914;2022-10-15T08:40:51;15.00;99.90
16198;DHT22;8206;51.440;6.914;2022-10-15T08:43:22;15.00;99.90
16198;DHT22;8206;51.440;6.914;2022-10-15T08:45:53;15.00;99.90
16198;DHT22;8206;51.440;6.914;2022-10-15T08:48:25;15.20;99.90
16198;DHT22;8206;51.440;6.914;2022-10-15T08:51:00;15.60;99.90
16198;DHT22;8206;51.440;6.914;2022-10-15T08:53:28;16.00;99.90
16198;DHT22;8206;51.440;6.914;2022-10-15T08:55:59;16.20;99.90
16198;DHT22;8206;51.440;6.914;2022-10-15T08:58:39;16.40;99.90
16198;DHT22;8206;51.440;6.914;2022-10-15T09:01:13;16.50;99.90
16198;DHT22;8206;51.440;6.914;2022-10-15T09:03:50;16.50;99.90
16198;DHT22;8206;51.440;6.914;2022-10-15T09:06:22;16.60;97.40
16198;DHT22;8206;51.440;6.914;2022-10-15T09:08:54;16.60;99.90
16198;DHT22;8206;51.440;6.914;2022-10-15T09:11:29;16.90;93.80
16198;DHT22;8206;51.440;6.914;2022-10-15T09:14:01;17.00;85.40
16198;DHT22;8206;51.440;6.914;2022-10-15T09:16:34;17.00;72.50
16198;DHT22;8206;51.440;6.914;2022-10-15T09:19:05;16.90;79.70
16198;DHT22;8206;51.440;6.914;2022-10-15T09:21:37;16.80;91.30
16198;DHT22;8206;51.440;6.914;2022-10-15T09:24:05;16.70;84.00
16198;DHT22;8206;51.440;6.914;2022-10-15T09:26:39;16.80;88.60
16198;DHT22;8206;51.440;6.914;2022-10-15T09:29:16;16.80;85.00
16198;DHT22;8206;51.440;6.914;2022-10-15T09:31:52;16.70;79.60
16198;DHT22;8206;51.440;6.914;2022-10-15T09:34:26;16.80;74.60
16198;DHT22;8206;51.440;6.914;2022-10-15T09:36:59;16.90;42.00
16198;DHT22;8206;51.440;6.914;2022-10-15T09:39:52;17.20;33.20
16198;DHT22;8206;51.440;6.914;2022-10-15T09:42:26;17.30;28.30
16198;DHT22;8206;51.440;6.914;2022-10-15T09:44:57;17.50;14.30
16198;DHT22;8206;51.440;6.914;2022-10-15T09:47:27;17.50;4.20
16198;DHT22;8206;51.440;6.914;2022-10-15T09:49:53;17.60;1.00
16198;DHT22;8206;51.440;6.914;2022-10-15T09:52:29;17.70;25.10
16198;DHT22;8206;51.440;6.914;2022-10-15T09:55:05;17.80;1.00
16198;DHT22;8206;51.440;6.914;2022-10-15T09:57:34;18.00;1.00
16198;DHT22;8206;51.440;6.914;2022-10-15T10:00:06;17.90;99.90
16198;DHT22;8206;51.440;6.914;2022-10-15T10:02:33;17.80;22.20
16198;DHT22;8206;51.440;6.914;2022-10-15T10:05:17;17.70;1.00
16198;DHT22;8206;51.440;6.914;2022-10-15T10:07:46;17.80;1.00
16198;DHT22;8206;51.440;6.914;2022-10-15T10:10:22;17.90;1.00
16198;DHT22;8206;51.440;6.914;2022-10-15T10:12:51;18.00;1.00
16198;DHT22;8206;51.440;6.914;2022-10-15T10:15:29;18.10;1.00
16198;DHT22;8206;51.440;6.914;2022-10-15T10:17:56;18.30;1.00
16198;DHT22;8206;51.440;6.914;2022-10-15T10:20:24;18.30;1.00
16198;DHT22;8206;51.440;6.914;2022-10-15T10:22:54;18.20;1.00
16198;DHT22;8206;51.440;6.914;2022-10-15T10:25:34;18.20;1.00
16198;DHT22;8206;51.440;6.914;2022-10-15T10:28:12;18.40;1.00
16198;DHT22;8206;51.440;6.914;2022-10-15T10:30:47;18.40;1.00
16198;DHT22;8206;51.440;6.914;2022-10-15T10:33:22;18.40;1.00
16198;DHT22;8206;51.440;6.914;2022-10-15T10:35:50;18.30;1.00
16198;DHT22;8206;51.440;6.914;2022-10-15T10:38:21;18.30;1.00
16198;DHT22;8206;51.440;6.914;2022-10-15T10:40:52;18.20;1.00
16198;DHT22;8206;51.440;6.914;2022-10-15T10:43:24;18.30;1.00
16198;DHT22;8206;51.440;6.914;2022-10-15T10:45:53;18.50;1.00
16198;DHT22;8206;51.440;6.914;2022-10-15T10:48:22;18.50;1.00
16198;DHT22;8206;51.440;6.914;2022-10-15T10:51:01;18.20;1.00
16198;DHT22;8206;51.440;6.914;2022-10-15T10:53:30;18.10;1.00
16198;DHT22;8206;51.440;6.914;2022-10-15T10:55:57;18.10;22.90
16198;DHT22;8206;51.440;6.914;2022-10-15T10:58:28;18.20;23.80
16198;DHT22;8206;51.440;6.914;2022-10-15T11:00:58;18.20;1.00
16198;DHT22;8206;51.440;6.914;2022-10-15T11:03:34;18.20;1.00
16198;DHT22;8206;51.440;6.914;2022-10-15T11:06:25;18.10;1.00
16198;DHT22;8206;51.440;6.914;2022-10-15T11:09:09;18.10;1.00
16198;DHT22;8206;51.440;6.914;2022-10-15T11:11:47;18.00;5.00
16198;DHT22;8206;51.440;6.914;2022-10-15T11:14:21;18.00;15.00
16198;DHT22;8206;51.440;6.914;2022-10-15T11:16:59;17.90;56.00
16198;DHT22;8206;51.440;6.914;2022-10-15T11:19:33;17.90;17.20
16198;DHT22;8206;51.440;6.914;2022-10-15T11:22:19;18.00;25.20
16198;DHT22;8206;51.440;6.914;2022-10-15T11:24:57;18.10;1.00
16198;DHT22;8206;51.440;6.914;2022-10-15T11:27:40;18.20;1.00
16198;DHT22;8206;51.440;6.914;2022-10-15T11:30:16;18.20;1.00
16198;DHT22;8206;51.440;6.914;2022-10-15T11:32:52;18.10;1.00
16198;DHT22;8206;51.440;6.914;2022-10-15T11:35:33;18.00;1.00
16198;DHT22;8206;51.440;6.914;2022-10-15T11:38:11;18.00;1.00
16198;DHT22;8206;51.440;6.914;2022-10-15T11:40:49;18.10;1.00
16198;DHT22;8206;51.440;6.914;2022-10-15T11:43:42;18.10;1.00
16198;DHT22;8206;51.440;6.914;2022-10-15T11:46:15;18.10;1.00
16198;DHT22;8206;51.440;6.914;2022-10-15T11:48:54;18.10;1.00
16198;DHT22;8206;51.440;6.914;2022-10-15T11:51:27;18.00;1.00
16198;DHT22;8206;51.440;6.914;2022-10-15T11:54:14;17.90;1.00
16198;DHT22;8206;51.440;6.914;2022-10-15T11:56:46;17.90;1.00
16198;DHT22;8206;51.440;6.914;2022-10-15T11:59:23;18.10;1.00
16198;DHT22;8206;51.440;6.914;2022-10-15T12:01:53;18.00;1.00
16198;DHT22;8206;51.440;6.914;2022-10-15T12:04:29;18.00;1.00
16198;DHT22;8206;51.440;6.914;2022-10-15T12:07:01;17.80;1.00
16198;DHT22;8206;51.440;6.914;2022-10-15T12:09:33;17.90;1.00
16198;DHT22;8206;51.440;6.914;2022-10-15T12:12:06;18.10;1.00
16198;DHT22;8206;51.440;6.914;2022-10-15T12:14:38;17.90;1.00
16198;DHT22;8206;51.440;6.914;2022-10-15T12:17:13;17.80;1.00
16198;DHT22;8206;51.440;6.914;2022-10-15T12:19:46;17.80;1.00
16198;DHT22;8206;51.440;6.914;2022-10-15T12:22:31;17.80;1.00
16198;DHT22;8206;51.440;6.914;2022-10-15T12:24:59;17.80;1.00
16198;DHT22;8206;51.440;6.914;2022-10-15T12:27:32;17.80;1.00
16198;DHT22;8206;51.440;6.914;2022-10-15T12:30:12;17.80;1.00
16198;DHT22;8206;51.440;6.914;2022-10-15T12:32:45;17.80;1.00
16198;DHT22;8206;51.440;6.914;2022-10-15T12:38:20;17.80;1.00
16198;DHT22;8206;51.440;6.914;2022-10-15T12:40:56;17.80;1.00
16198;DHT22;8206;51.440;6.914;2022-10-15T12:43:25;17.80;1.00
16198;DHT22;8206;51.440;6.914;2022-10-15T12:45:55;17.90;1.00
16198;DHT22;8206;51.440;6.914;2022-10-15T12:48:35;18.10;1.00
16198;DHT22;8206;51.440;6.914;2022-10-15T12:51:35;18.30;1.00
16198;DHT22;8206;51.440;6.914;2022-10-15T12:54:33;18.50;1.00
16198;DHT22;8206;51.440;6.914;2022-10-15T12:57:01;18.50;1.00
16198;DHT22;8206;51.440;6.914;2022-10-15T12:59:54;18.60;1.00
16198;DHT22;8206;51.440;6.914;2022-10-15T13:02:35;18.80;1.00
16198;DHT22;8206;51.440;6.914;2022-10-15T13:05:05;19.10;1.00
16198;DHT22;8206;51.440;6.914;2022-10-15T13:07:35;19.00;1.00
16198;DHT22;8206;51.440;6.914;2022-10-15T13:10:04;19.10;1.00
16198;DHT22;8206;51.440;6.914;2022-10-15T13:12:39;19.10;1.00
16198;DHT22;8206;51.440;6.914;2022-10-15T13:15:13;19.00;1.00
16198;DHT22;8206;51.440;6.914;2022-10-15T13:17:42;18.90;1.00
16198;DHT22;8206;51.440;6.914;2022-10-15T13:20:28;19.00;1.00
16198;DHT22;8206;51.440;6.914;2022-10-15T13:23:06;19.10;1.00
16198;DHT22;8206;51.440;6.914;2022-10-15T13:25:33;19.20;1.00
16198;DHT22;8206;51.440;6.914;2022-10-15T13:28:00;19.30;1.00
16198;DHT22;8206;51.440;6.914;2022-10-15T13:30:28;19.20;1.00
16198;DHT22;8206;51.440;6.914;2022-10-15T13:32:55;19.20;1.00
16198;DHT22;8206;51.440;6.914;2022-10-15T13:35:24;19.20;1.00
16198;DHT22;8206;51.440;6.914;2022-10-15T13:37:54;19.40;1.00
16198;DHT22;8206;51.440;6.914;2022-10-15T13:40:24;19.40;1.00
16198;DHT22;8206;51.440;6.914;2022-10-15T13:42:57;19.60;1.00
16198;DHT22;8206;51.440;6.914;2022-10-15T13:45:25;19.60;1.00
16198;DHT22;8206;51.440;6.914;2022-10-15T13:47:53;19.40;1.00
16198;DHT22;8206;51.440;6.914;2022-10-15T13:50:23;19.50;1.00
16198;DHT22;8206;51.440;6.914;2022-10-15T13:52:53;19.50;1.00
16198;DHT22;8206;51.440;6.914;2022-10-15T13:55:23;19.50;1.00
16198;DHT22;8206;51.440;6.914;2022-10-15T13:57:52;19.50;1.00
16198;DHT22;8206;51.440;6.914;2022-10-15T14:00:24;19.40;1.00
16198;DHT22;8206;51.440;6.914;2022-10-15T14:03:15;19.40;1.00
16198;DHT22;8206;51.440;6.914;2022-10-15T14:05:43;19.40;1.00
16198;DHT22;8206;51.440;6.914;2022-10-15T14:08:15;19.40;1.00
16198;DHT22;8206;51.440;6.914;2022-10-15T14:10:42;19.40;1.00
16198;DHT22;8206;51.440;6.914;2022-10-15T14:13:10;19.40;1.00
16198;DHT22;8206;51.440;6.914;2022-10-15T14:15:42;19.40;1.00
16198;DHT22;8206;51.440;6.914;2022-10-15T14:18:12;19.40;1.00
16198;DHT22;8206;51.440;6.914;2022-10-15T14:20:43;19.30;1.00
16198;DHT22;8206;51.440;6.914;2022-10-15T14:23:15;19.20;1.00
16198;DHT22;8206;51.440;6.914;2022-10-15T14:25:42;19.10;1.00
16198;DHT22;8206;51.440;6.914;2022-10-15T14:28:16;19.00;1.00
16198;DHT22;8206;51.440;6.914;2022-10-15T14:30:44;18.90;1.00
16198;DHT22;8206;51.440;6.914;2022-10-15T14:36:28;18.70;1.00
16198;DHT22;8206;51.440;6.914;2022-10-15T14:39:17;18.60;1.00
16198;DHT22;8206;51.440;6.914;2022-10-15T14:41:55;18.30;75.00
16198;DHT22;8206;51.440;6.914;2022-10-15T14:44:22;18.00;99.90
16198;DHT22;8206;51.440;6.914;2022-10-15T14:46:50;17.80;99.90
16198;DHT22;8206;51.440;6.914;2022-10-15T14:49:22;17.70;1.00
16198;DHT22;8206;51.440;6.914;2022-10-15T14:52:11;17.60;1.00
16198;DHT22;8206;51.440;6.914;2022-10-15T14:54:41;17.60;1.00
16198;DHT22;8206;51.440;6.914;2022-10-15T14:57:16;17.60;1.00
16198;DHT22;8206;51.440;6.914;2022-10-15T14:59:44;17.60;1.00
16198;DHT22;8206;51.440;6.914;2022-10-15T15:02:14;17.50;1.00
16198;DHT22;8206;51.440;6.914;2022-10-15T15:04:52;17.50;1.00
16198;DHT22;8206;51.440;6.914;2022-10-15T15:07:30;17.50;1.00
16198;DHT22;8206;51.440;6.914;2022-10-15T15:09:57;17.50;1.00
16198;DHT22;8206;51.440;6.914;2022-10-15T15:12:25;17.50;1.00
16198;DHT22;8206;51.440;6.914;2022-10-15T15:14:52;17.60;99.90
16198;DHT22;8206;51.440;6.914;2022-10-15T15:17:20;17.60;99.90
16198;DHT22;8206;51.440;6.914;2022-10-15T15:19:48;17.60;99.90
16198;DHT22;8206;51.440;6.914;2022-10-15T15:22:17;17.60;99.90
16198;DHT22;8206;51.440;6.914;2022-10-15T15:24:45;17.80;99.90
16198;DHT22;8206;51.440;6.914;2022-10-15T15:27:21;17.80;57.90
16198;DHT22;8206;51.440;6.914;2022-10-15T15:29:49;17.90;35.20
16198;DHT22;8206;51.440;6.914;2022-10-15T15:32:16;17.90;16.10
16198;DHT22;8206;51.440;6.914;2022-10-15T15:34:43;17.90;50.70
16198;DHT22;8206;51.440;6.914;2022-10-15T15:37:12;17.80;98.10
16198;DHT22;8206;51.440;6.914;2022-10-15T15:39:39;17.80;40.70
16198;DHT22;8206;51.440;6.914;2022-10-15T15:42:10;17.70;99.90
16198;DHT22;8206;51.440;6.914;2022-10-15T15:44:37;17.70;99.90
16198;DHT22;8206;51.440;6.914;2022-10-15T15:47:04;17.70;99.90
16198;DHT22;8206;51.440;6.914;2022-10-15T15:49:31;17.60;99.90
16198;DHT22;8206;51.440;6.914;2022-10-15T15:51:57;17.50;99.90
16198;DHT22;8206;51.440;6.914;2022-10-15T15:54:24;17.50;99.90
16198;DHT22;8206;51.440;6.914;2022-10-15T15:56:51;17.50;99.90
16198;DHT22;8206;51.440;6.914;2022-10-15T15:59:19;17.40;1.00
16198;DHT22;8206;51.440;6.914;2022-10-15T16:01:46;17.40;1.00
16198;DHT22;8206;51.440;6.914;2022-10-15T16:04:12;17.30;1.00
16198;DHT22;8206;51.440;6.914;2022-10-15T16:06:39;17.30;1.00
16198;DHT22;8206;51.440;6.914;2022-10-15T16:09:07;17.30;1.00
16198;DHT22;8206;51.440;6.914;2022-10-15T16:11:36;17.20;1.00
16198;DHT22;8206;51.440;6.914;2022-10-15T16:14:03;17.20;99.90
16198;DHT22;8206;51.440;6.914;2022-10-15T16:16:31;17.20;99.90